Terminal Aerodrome Forecast
Issued by NWS

Home | Current Version | Previous Version | Graphics & Text | Print | Product List | Glossary On
Versions: 1 2 3 4 5 6 7 8 9 10 11 12 13
000
FTUS45 KGGW 172326
TAFSDY
TAF
KSDY 172326Z 1800/1824 32004KT P6SM SCT100
     FM180600 32008KT P6SM SCT050
     FM181200 29005KT P6SM BKN090
     FM181700 28008KT P6SM SCT060=

USA.gov is the U.S. government's official web portal to all federal, state and local government web resources and services.